Datum - Zeit
Temperatur 2mTemperatur 5cmTaupunktFeuchteSolar Wind aus Richtung WindböenLuftdruck (QFF)RegenRegenstärkeTrend
05.09.2026 - 00.00Uhr23.6 °C16 °C62.0 %9.7 km/hSüden16.2 km/h1011.5 hPa0.0 mm0.0 mm/hsonnig
05.09.2026 - 00.05Uhr23.4 °C16 °C62.0 %10.7 km/hSüden16.2 km/h1010.0 hPa0.0 mm0.0 mm/hsonnig
05.09.2026 - 00.10Uhr23.6 °C16 °C61.4 %10.6 km/hSüden16.2 km/h1010.8 hPa0.0 mm0.0 mm/hsonnig
05.09.2026 - 00.15Uhr23.6 °C16 °C61.3 %10.0 km/hSüden14.4 km/h1010.8 hPa0.0 mm0.0 mm/hsonnig
05.09.2026 - 00.20Uhr23.2 °C16 °C62.7 %9.0 km/hSüden14.4 km/h1010.7 hPa0.0 mm0.0 mm/hsonnig
05.09.2026 - 00.25Uhr23.1 °C16 °C62.9 %11.8 km/hSüd-SW17.6 km/h1009.9 hPa0.0 mm0.0 mm/hsonnig
05.09.2026 - 00.30Uhr23.4 °C16 °C61.5 %12.1 km/hSüden17.6 km/h1007.2 hPa0.0 mm0.0 mm/hsonnig
05.09.2026 - 00.35Uhr23.8 °C16 °C61.0 %12.0 km/hSüden17.6 km/h1009.9 hPa0.0 mm0.0 mm/hsonnig
05.09.2026 - 00.40Uhr23.8 °C16 °C60.4 %12.1 km/hSüden17.6 km/h1010.7 hPa0.0 mm0.0 mm/hsonnig
05.09.2026 - 00.45Uhr23.6 °C16 °C61.0 %14.3 km/hSüden19.4 km/h1011.8 hPa0.0 mm0.0 mm/hsonnig
05.09.2026 - 00.50Uhr23.8 °C16 °C60.1 %14.1 km/hSüden17.6 km/h1008.8 hPa0.0 mm0.0 mm/hsonnig
05.09.2026 - 00.55Uhr24.1 °C16 °C59.3 %14.0 km/hSüd-SW19.4 km/h1010.7 hPa0.0 mm0.0 mm/hsonnig
05.09.2026 - 01.00Uhr24.1 °C16 °C59.0 %12.2 km/hSüd-SW16.2 km/h1009.9 hPa0.0 mm0.0 mm/hwechselhaft
05.09.2026 - 01.05Uhr24.0 °C16 °C59.5 %13.8 km/hSüd-SW17.6 km/h1010.7 hPa0.0 mm0.0 mm/hwechselhaft
05.09.2026 - 01.10Uhr24.2 °C16 °C59.0 %12.4 km/hSüd-SW16.2 km/h1011.8 hPa0.0 mm0.0 mm/hwechselhaft
05.09.2026 - 01.15Uhr24.1 °C16 °C59.8 %11.9 km/hSüden16.2 km/h1009.9 hPa0.0 mm0.0 mm/hwechselhaft
05.09.2026 - 01.20Uhr23.9 °C16 °C60.4 %11.0 km/hSüden16.2 km/h1011.8 hPa0.0 mm0.0 mm/hwechselhaft
05.09.2026 - 01.25Uhr23.8 °C16 °C61.0 %10.4 km/hSüden16.2 km/h1009.9 hPa0.0 mm0.0 mm/hwechselhaft
05.09.2026 - 01.30Uhr23.7 °C16 °C61.0 %9.8 km/hSüd-SW16.2 km/h1008.8 hPa0.0 mm0.0 mm/hwechselhaft
05.09.2026 - 01.35Uhr23.6 °C16 °C61.0 %11.7 km/hSüd-SW17.6 km/h1012.4 hPa0.0 mm0.0 mm/hwechselhaft
05.09.2026 - 01.40Uhr23.9 °C16 °C60.3 %10.0 km/hSüd-SW16.2 km/h1011.5 hPa0.0 mm0.0 mm/hwechselhaft
05.09.2026 - 01.45Uhr24.0 °C16 °C60.0 %9.0 km/hSüd-SW16.2 km/h1010.8 hPa0.0 mm0.0 mm/hwechselhaft
05.09.2026 - 01.50Uhr23.9 °C16 °C60.3 %9.1 km/hSüd-SW16.2 km/h1007.4 hPa0.0 mm0.0 mm/hwechselhaft
05.09.2026 - 01.55Uhr24.2 °C16 °C59.0 %11.3 km/hSüd-SW17.6 km/h1010.8 hPa0.0 mm0.0 mm/hwechselhaft
05.09.2026 - 02.00Uhr24.3 °C16 °C59.0 %11.3 km/hSüd-SW19.4 km/h1011.5 hPa0.0 mm0.0 mm/hwechselhaft
05.09.2026 - 02.05Uhr24.4 °C16 °C58.4 %11.1 km/hSüd-SW19.4 km/h1011.5 hPa0.0 mm0.0 mm/hwechselhaft
05.09.2026 - 02.10Uhr24.6 °C16 °C57.9 %11.3 km/hSüd-SW20.9 km/h1010.9 hPa0.0 mm0.0 mm/hwechselhaft
05.09.2026 - 02.15Uhr24.6 °C16 °C57.1 %5.3 km/hSüdwesten11.2 km/h1010.0 hPa0.0 mm0.0 mm/hwechselhaft
05.09.2026 - 02.20Uhr24.7 °C15 °C56.4 %6.1 km/hSüd-SW14.4 km/h1008.9 hPa0.0 mm0.0 mm/hwechselhaft
05.09.2026 - 02.25Uhr24.8 °C15 °C55.8 %5.3 km/hSüdwesten16.2 km/h1012.3 hPa0.0 mm0.0 mm/hwechselhaft
05.09.2026 - 02.30Uhr24.8 °C15 °C56.0 %4.2 km/hSüdwesten13.0 km/h1011.4 hPa0.0 mm0.0 mm/hwechselhaft
05.09.2026 - 02.35Uhr24.6 °C15 °C56.1 %4.1 km/hSüdwesten9.7 km/h1011.5 hPa0.0 mm0.0 mm/hwechselhaft
05.09.2026 - 02.40Uhr24.5 °C15 °C56.9 %4.1 km/hSüdwesten13.0 km/h1011.9 hPa0.0 mm0.0 mm/hwechselhaft
05.09.2026 - 02.45Uhr24.4 °C15 °C57.0 %4.3 km/hSüdwesten9.7 km/h1008.9 hPa0.0 mm0.0 mm/hwechselhaft
05.09.2026 - 02.50Uhr24.3 °C15 °C57.0 %3.0 km/hSüdwesten9.7 km/h1007.5 hPa0.0 mm0.0 mm/hwechselhaft
05.09.2026 - 02.55Uhr24.2 °C15 °C57.2 %3.1 km/hSüdwesten9.7 km/h1009.1 hPa0.0 mm0.0 mm/hwechselhaft
05.09.2026 - 03.00Uhr24.1 °C15 °C57.8 %2.5 km/hSüdwesten7.9 km/h1010.2 hPa0.0 mm0.0 mm/hwechselhaft
05.09.2026 - 03.05Uhr24.0 °C15 °C58.3 %7.4 km/hSüd-SW14.4 km/h1011.0 hPa0.0 mm0.0 mm/hwechselhaft
05.09.2026 - 03.10Uhr23.9 °C15 °C58.9 %6.4 km/hSüd-SW14.4 km/h1011.0 hPa0.0 mm0.0 mm/hwechselhaft
05.09.2026 - 03.15Uhr23.8 °C15 °C58.4 %4.9 km/hSüdwesten13.0 km/h1012.1 hPa0.0 mm0.0 mm/hwechselhaft
05.09.2026 - 03.20Uhr23.8 °C15 °C58.4 %2.3 km/hSüdwesten7.9 km/h1011.0 hPa0.0 mm0.0 mm/hwechselhaft
05.09.2026 - 03.25Uhr23.7 °C15 °C59.0 %3.1 km/hSüdwesten7.9 km/h1011.7 hPa0.0 mm0.0 mm/hwechselhaft
05.09.2026 - 03.30Uhr23.5 °C15 °C59.2 %3.9 km/hSüdwesten13.0 km/h1011.6 hPa0.0 mm0.0 mm/hwechselhaft
05.09.2026 - 03.35Uhr23.4 °C15 °C59.0 %2.8 km/hSüdwesten7.9 km/h1010.1 hPa0.0 mm0.0 mm/hwechselhaft
05.09.2026 - 03.40Uhr23.3 °C15 °C59.4 %3.8 km/hSüdwesten14.4 km/h1011.0 hPa0.0 mm0.0 mm/hwechselhaft
05.09.2026 - 03.45Uhr23.3 °C15 °C59.3 %3.6 km/hWest-SW7.9 km/h1010.2 hPa0.0 mm0.0 mm/hwechselhaft
05.09.2026 - 03.50Uhr23.4 °C15 °C58.6 %4.7 km/hWesten9.7 km/h1009.2 hPa0.0 mm0.0 mm/hwechselhaft
05.09.2026 - 03.55Uhr23.5 °C15 °C58.8 %4.5 km/hSüdwesten14.4 km/h1010.4 hPa0.0 mm0.0 mm/hwechselhaft
05.09.2026 - 04.00Uhr23.4 °C15 °C58.9 %5.1 km/hWesten13.0 km/h1007.8 hPa0.0 mm0.0 mm/hwechselhaft
05.09.2026 - 04.05Uhr23.6 °C15 °C57.7 %5.6 km/hWest-SW14.4 km/h1009.4 hPa0.0 mm0.0 mm/hwechselhaft
05.09.2026 - 04.10Uhr23.9 °C15 °C56.9 %4.0 km/hWest-SW11.2 km/h1010.5 hPa0.0 mm0.0 mm/hwechselhaft
05.09.2026 - 04.15Uhr23.8 °C15 °C57.0 %7.2 km/hWesten20.9 km/h1010.6 hPa0.0 mm0.0 mm/hwechselhaft
05.09.2026 - 04.20Uhr23.8 °C15 °C56.9 %9.0 km/hWesten17.6 km/h1012.0 hPa0.0 mm0.0 mm/hwechselhaft
05.09.2026 - 04.25Uhr23.9 °C15 °C56.0 %9.4 km/hWesten16.2 km/h1012.0 hPa0.0 mm0.0 mm/hwechselhaft
05.09.2026 - 04.30Uhr23.8 °C15 °C56.9 %9.3 km/hWest-SW19.4 km/h1010.6 hPa0.0 mm0.0 mm/hwechselhaft
05.09.2026 - 04.35Uhr23.6 °C15 °C57.0 %9.9 km/hWesten16.2 km/h1012.2 hPa0.0 mm0.0 mm/hwechselhaft
05.09.2026 - 04.40Uhr23.5 °C15 °C57.6 %9.2 km/hWesten16.2 km/h1010.7 hPa0.0 mm0.0 mm/hwechselhaft
05.09.2026 - 04.45Uhr23.3 °C15 °C58.7 %7.1 km/hWesten13.0 km/h1012.3 hPa0.0 mm0.0 mm/hwechselhaft
05.09.2026 - 04.50Uhr23.0 °C15 °C59.7 %6.5 km/hWesten11.2 km/h1011.8 hPa0.0 mm0.0 mm/hwechselhaft
05.09.2026 - 04.55Uhr22.8 °C15 °C60.6 %4.8 km/hWesten9.7 km/h1011.9 hPa0.0 mm0.0 mm/hwechselhaft
05.09.2026 - 05.00Uhr22.4 °C15 °C62.1 %2.0 km/hWesten4.7 km/h1012.0 hPa0.0 mm0.0 mm/hwechselhaft
05.09.2026 - 05.05Uhr22.1 °C15 °C63.0 %3.6 km/hWest-NW6.5 km/h1012.1 hPa0.0 mm0.0 mm/hwechselhaft
05.09.2026 - 05.10Uhr22.1 °C15 °C63.7 %4.3 km/hWest-NW6.5 km/h1011.5 hPa0.0 mm0.0 mm/hwechselhaft
05.09.2026 - 05.15Uhr21.9 °C15 °C64.0 %5.4 km/hWest-NW9.7 km/h1011.6 hPa0.0 mm0.0 mm/hwechselhaft
05.09.2026 - 05.20Uhr21.9 °C15 °C64.0 %6.7 km/hWest-NW11.2 km/h1013.2 hPa0.0 mm0.0 mm/hwechselhaft
05.09.2026 - 05.25Uhr21.7 °C15 °C65.2 %4.2 km/hWesten9.7 km/h1009.1 hPa0.0 mm0.0 mm/hwechselhaft
05.09.2026 - 05.30Uhr21.4 °C15 °C66.8 %2.3 km/hWest-SW6.5 km/h1011.8 hPa0.0 mm0.0 mm/hwechselhaft
05.09.2026 - 05.35Uhr21.0 °C15 °C68.0 %3.6 km/hWest-SW6.5 km/h1012.7 hPa0.0 mm0.0 mm/hwechselhaft
05.09.2026 - 05.40Uhr20.9 °C15 °C68.0 %3.2 km/hWest-SW6.5 km/h1012.0 hPa0.0 mm0.0 mm/hwechselhaft
05.09.2026 - 05.45Uhr20.9 °C15 °C68.2 %1.5 km/hWest-SW4.7 km/h1012.1 hPa0.0 mm0.0 mm/hwechselhaft
05.09.2026 - 05.50Uhr20.8 °C15 °C69.0 %0.7 km/hWest-SW3.2 km/h1013.6 hPa0.0 mm0.0 mm/hwechselhaft
05.09.2026 - 05.55Uhr20.7 °C15 °C70.0 %1.7 km/hWest-SW4.7 km/h1012.3 hPa0.0 mm0.0 mm/hwechselhaft
05.09.2026 - 06.00Uhr20.5 °C15 °C71.0 %2.0 km/hSüdwesten6.5 km/h1014.2 hPa0.0 mm0.0 mm/hsonnig
05.09.2026 - 06.05Uhr20.7 °C15 °C69.4 %3.6 km/hWest-SW6.5 km/h1009.7 hPa0.0 mm0.0 mm/hsonnig
05.09.2026 - 06.10Uhr21.1 °C15 °C67.6 %3.2 km/hWesten6.5 km/h1013.2 hPa0.0 mm0.0 mm/hsonnig
05.09.2026 - 06.15Uhr21.3 °C15 °C66.9 %3.0 km/hWesten6.5 km/h1013.2 hPa0.0 mm0.0 mm/hsonnig
05.09.2026 - 06.20Uhr21.2 °C15 °C67.5 %2.2 km/hWest-SW4.7 km/h1012.5 hPa0.0 mm0.0 mm/hsonnig
05.09.2026 - 06.25Uhr21.1 °C15 °C67.8 %2.9 km/hWesten4.7 km/h1012.6 hPa0.0 mm0.0 mm/hsonnig
05.09.2026 - 06.30Uhr21.2 °C15 °C68.0 %2.4 km/hWest-NW4.7 km/h1014.2 hPa0.0 mm0.0 mm/hsonnig
05.09.2026 - 06.35Uhr21.1 °C15 °C68.2 %2.4 km/hWesten4.7 km/h1011.6 hPa0.0 mm0.0 mm/hsonnig
05.09.2026 - 06.40Uhr21.1 °C15 °C68.0 %2.8 km/hWest-NW4.7 km/h1013.6 hPa0.0 mm0.0 mm/hsonnig
05.09.2026 - 06.45Uhr21.0 °C15 °C68.0 %2.7 km/hWest-NW4.7 km/h1013.6 hPa0.0 mm0.0 mm/hsonnig
05.09.2026 - 06.50Uhr20.9 °C15 °C68.6 %3.5 km/hWesten4.7 km/h1010.2 hPa0.0 mm0.0 mm/hsonnig
05.09.2026 - 06.55Uhr20.8 °C15 °C70.1 %3.5 km/hWesten4.7 km/h1010.2 hPa0.0 mm0.0 mm/hsonnig
05.09.2026 - 07.00Uhr20.4 °C15 °C71.4 %3.4 km/hWesten4.7 km/h1014.4 hPa0.0 mm0.0 mm/hsonnig
05.09.2026 - 07.05Uhr20.3 °C15 °C71.6 %3.1 km/hWesten4.7 km/h1010.4 hPa0.0 mm0.0 mm/hsonnig
05.09.2026 - 07.10Uhr20.4 °C15 °C71.0 %2.5 km/hWest-NW4.7 km/h1012.0 hPa0.0 mm0.0 mm/hsonnig